sensor_id;sensor_type;location;lat;lon;timestamp;P1;durP1;ratioP1;P2;durP2;ratioP2
8881;SDS011;4477;48.736;9.176;2023-08-17T00:00:58;17.53;;;15.83;;
8881;SDS011;4477;48.736;9.176;2023-08-17T00:03:25;18.57;;;16.67;;
8881;SDS011;4477;48.736;9.176;2023-08-17T00:05:52;16.43;;;14.73;;
8881;SDS011;4477;48.736;9.176;2023-08-17T00:08:19;18.80;;;16.90;;
8881;SDS011;4477;48.736;9.176;2023-08-17T00:10:45;20.90;;;17.93;;
8881;SDS011;4477;48.736;9.176;2023-08-17T00:13:13;19.80;;;16.73;;
8881;SDS011;4477;48.736;9.176;2023-08-17T00:15:40;20.23;;;18.13;;
8881;SDS011;4477;48.736;9.176;2023-08-17T00:18:08;20.63;;;18.40;;
8881;SDS011;4477;48.736;9.176;2023-08-17T00:20:35;22.13;;;19.57;;
8881;SDS011;4477;48.736;9.176;2023-08-17T00:23:02;24.30;;;20.47;;
8881;SDS011;4477;48.736;9.176;2023-08-17T00:25:29;23.53;;;20.60;;
8881;SDS011;4477;48.736;9.176;2023-08-17T00:27:56;22.40;;;20.10;;
8881;SDS011;4477;48.736;9.176;2023-08-17T00:30:23;21.40;;;19.30;;
8881;SDS011;4477;48.736;9.176;2023-08-17T00:32:50;22.53;;;20.03;;
8881;SDS011;4477;48.736;9.176;2023-08-17T00:35:18;26.03;;;23.33;;
8881;SDS011;4477;48.736;9.176;2023-08-17T00:37:45;30.00;;;26.83;;
8881;SDS011;4477;48.736;9.176;2023-08-17T00:40:12;28.97;;;25.97;;
8881;SDS011;4477;48.736;9.176;2023-08-17T00:42:39;29.77;;;26.53;;
8881;SDS011;4477;48.736;9.176;2023-08-17T00:45:06;32.17;;;27.53;;
8881;SDS011;4477;48.736;9.176;2023-08-17T00:47:33;32.13;;;28.03;;
8881;SDS011;4477;48.736;9.176;2023-08-17T00:50:00;26.57;;;23.70;;
8881;SDS011;4477;48.736;9.176;2023-08-17T00:52:29;30.93;;;26.70;;
8881;SDS011;4477;48.736;9.176;2023-08-17T00:54:58;29.07;;;24.63;;
8881;SDS011;4477;48.736;9.176;2023-08-17T00:57:27;30.50;;;26.80;;
8881;SDS011;4477;48.736;9.176;2023-08-17T00:59:54;30.83;;;26.40;;
8881;SDS011;4477;48.736;9.176;2023-08-17T01:02:21;25.47;;;22.57;;
8881;SDS011;4477;48.736;9.176;2023-08-17T01:04:48;26.13;;;23.33;;
8881;SDS011;4477;48.736;9.176;2023-08-17T01:07:15;27.80;;;23.93;;
8881;SDS011;4477;48.736;9.176;2023-08-17T01:09:43;22.53;;;20.33;;
8881;SDS011;4477;48.736;9.176;2023-08-17T01:12:13;24.27;;;21.83;;
8881;SDS011;4477;48.736;9.176;2023-08-17T01:14:50;22.70;;;20.40;;
8881;SDS011;4477;48.736;9.176;2023-08-17T01:17:23;22.87;;;20.17;;
8881;SDS011;4477;48.736;9.176;2023-08-17T01:19:53;22.53;;;20.30;;
8881;SDS011;4477;48.736;9.176;2023-08-17T01:22:21;28.73;;;24.33;;
8881;SDS011;4477;48.736;9.176;2023-08-17T01:24:50;24.83;;;21.17;;
8881;SDS011;4477;48.736;9.176;2023-08-17T01:27:22;23.97;;;21.40;;
8881;SDS011;4477;48.736;9.176;2023-08-17T01:29:49;23.13;;;20.63;;
8881;SDS011;4477;48.736;9.176;2023-08-17T01:32:18;31.97;;;25.10;;
8881;SDS011;4477;48.736;9.176;2023-08-17T01:34:54;31.03;;;25.07;;
8881;SDS011;4477;48.736;9.176;2023-08-17T01:37:28;40.67;;;29.00;;
8881;SDS011;4477;48.736;9.176;2023-08-17T01:39:59;57.80;;;34.93;;
8881;SDS011;4477;48.736;9.176;2023-08-17T01:42:26;62.83;;;37.90;;
8881;SDS011;4477;48.736;9.176;2023-08-17T01:44:54;56.37;;;36.30;;
8881;SDS011;4477;48.736;9.176;2023-08-17T01:47:21;74.90;;;40.37;;
8881;SDS011;4477;48.736;9.176;2023-08-17T01:49:48;54.83;;;36.10;;
8881;SDS011;4477;48.736;9.176;2023-08-17T01:52:15;65.97;;;38.43;;
8881;SDS011;4477;48.736;9.176;2023-08-17T01:54:42;62.33;;;39.20;;
8881;SDS011;4477;48.736;9.176;2023-08-17T01:57:10;65.90;;;40.17;;
8881;SDS011;4477;48.736;9.176;2023-08-17T01:59:37;67.40;;;39.40;;
8881;SDS011;4477;48.736;9.176;2023-08-17T02:02:04;65.90;;;38.97;;
8881;SDS011;4477;48.736;9.176;2023-08-17T02:04:31;56.80;;;37.00;;
8881;SDS011;4477;48.736;9.176;2023-08-17T02:06:59;69.93;;;40.07;;
8881;SDS011;4477;48.736;9.176;2023-08-17T02:09:26;70.77;;;39.20;;
8881;SDS011;4477;48.736;9.176;2023-08-17T02:11:53;77.70;;;40.27;;
8881;SDS011;4477;48.736;9.176;2023-08-17T02:14:21;71.30;;;38.73;;
8881;SDS011;4477;48.736;9.176;2023-08-17T02:16:48;72.40;;;40.57;;
8881;SDS011;4477;48.736;9.176;2023-08-17T02:19:15;62.47;;;38.73;;
8881;SDS011;4477;48.736;9.176;2023-08-17T02:21:42;69.77;;;40.83;;
8881;SDS011;4477;48.736;9.176;2023-08-17T02:24:10;67.53;;;39.93;;
8881;SDS011;4477;48.736;9.176;2023-08-17T02:26:37;74.00;;;40.73;;
8881;SDS011;4477;48.736;9.176;2023-08-17T02:29:05;66.27;;;40.37;;
8881;SDS011;4477;48.736;9.176;2023-08-17T02:31:33;64.37;;;37.57;;
8881;SDS011;4477;48.736;9.176;2023-08-17T02:34:00;70.33;;;40.70;;
8881;SDS011;4477;48.736;9.176;2023-08-17T02:36:30;60.27;;;36.70;;
8881;SDS011;4477;48.736;9.176;2023-08-17T02:38:57;73.40;;;40.37;;
8881;SDS011;4477;48.736;9.176;2023-08-17T02:41:24;63.80;;;37.67;;
8881;SDS011;4477;48.736;9.176;2023-08-17T02:43:51;60.57;;;36.57;;
8881;SDS011;4477;48.736;9.176;2023-08-17T02:46:18;57.70;;;37.47;;
8881;SDS011;4477;48.736;9.176;2023-08-17T02:48:46;53.17;;;35.93;;
8881;SDS011;4477;48.736;9.176;2023-08-17T02:51:13;55.10;;;35.90;;
8881;SDS011;4477;48.736;9.176;2023-08-17T02:53:40;53.77;;;36.43;;
8881;SDS011;4477;48.736;9.176;2023-08-17T02:56:07;49.07;;;34.13;;
8881;SDS011;4477;48.736;9.176;2023-08-17T02:58:37;53.70;;;36.67;;
8881;SDS011;4477;48.736;9.176;2023-08-17T03:01:05;55.80;;;37.33;;
8881;SDS011;4477;48.736;9.176;2023-08-17T03:03:32;53.60;;;37.40;;
8881;SDS011;4477;48.736;9.176;2023-08-17T03:06:01;54.87;;;37.00;;
8881;SDS011;4477;48.736;9.176;2023-08-17T03:08:28;54.27;;;37.10;;
8881;SDS011;4477;48.736;9.176;2023-08-17T03:10:55;50.90;;;35.67;;
8881;SDS011;4477;48.736;9.176;2023-08-17T03:13:22;52.77;;;35.83;;
8881;SDS011;4477;48.736;9.176;2023-08-17T03:15:49;54.90;;;37.07;;
8881;SDS011;4477;48.736;9.176;2023-08-17T03:18:16;49.13;;;36.57;;
8881;SDS011;4477;48.736;9.176;2023-08-17T03:20:44;56.30;;;36.97;;
8881;SDS011;4477;48.736;9.176;2023-08-17T03:23:12;57.90;;;36.40;;
8881;SDS011;4477;48.736;9.176;2023-08-17T03:25:39;54.03;;;35.70;;
8881;SDS011;4477;48.736;9.176;2023-08-17T03:28:06;52.30;;;35.23;;
8881;SDS011;4477;48.736;9.176;2023-08-17T03:30:33;47.23;;;33.93;;
8881;SDS011;4477;48.736;9.176;2023-08-17T03:33:00;46.40;;;33.90;;
8881;SDS011;4477;48.736;9.176;2023-08-17T03:35:27;50.83;;;33.07;;
8881;SDS011;4477;48.736;9.176;2023-08-17T03:37:54;42.00;;;31.80;;
8881;SDS011;4477;48.736;9.176;2023-08-17T03:40:22;42.67;;;31.80;;
8881;SDS011;4477;48.736;9.176;2023-08-17T03:42:49;41.33;;;31.33;;
8881;SDS011;4477;48.736;9.176;2023-08-17T03:45:16;45.27;;;32.80;;
8881;SDS011;4477;48.736;9.176;2023-08-17T03:47:43;51.70;;;37.93;;
8881;SDS011;4477;48.736;9.176;2023-08-17T03:50:10;44.23;;;33.77;;
8881;SDS011;4477;48.736;9.176;2023-08-17T03:52:36;50.43;;;33.87;;
8881;SDS011;4477;48.736;9.176;2023-08-17T03:55:03;49.43;;;34.83;;
8881;SDS011;4477;48.736;9.176;2023-08-17T03:57:33;49.33;;;34.53;;
8881;SDS011;4477;48.736;9.176;2023-08-17T04:00:00;50.57;;;35.30;;
8881;SDS011;4477;48.736;9.176;2023-08-17T04:02:27;48.37;;;34.57;;
8881;SDS011;4477;48.736;9.176;2023-08-17T04:04:53;58.00;;;37.83;;
8881;SDS011;4477;48.736;9.176;2023-08-17T04:07:21;54.60;;;38.63;;
8881;SDS011;4477;48.736;9.176;2023-08-17T04:09:48;56.53;;;37.17;;
8881;SDS011;4477;48.736;9.176;2023-08-17T04:12:15;60.50;;;37.43;;
8881;SDS011;4477;48.736;9.176;2023-08-17T04:14:44;66.63;;;40.53;;
8881;SDS011;4477;48.736;9.176;2023-08-17T04:17:11;102.37;;;40.57;;
8881;SDS011;4477;48.736;9.176;2023-08-17T04:19:38;65.50;;;39.90;;
8881;SDS011;4477;48.736;9.176;2023-08-17T04:22:05;79.57;;;41.03;;
8881;SDS011;4477;48.736;9.176;2023-08-17T04:24:31;65.67;;;39.93;;
8881;SDS011;4477;48.736;9.176;2023-08-17T04:26:58;60.50;;;38.13;;
8881;SDS011;4477;48.736;9.176;2023-08-17T04:29:25;57.97;;;38.53;;
8881;SDS011;4477;48.736;9.176;2023-08-17T04:31:54;60.30;;;38.87;;
8881;SDS011;4477;48.736;9.176;2023-08-17T04:34:20;63.07;;;37.40;;
8881;SDS011;4477;48.736;9.176;2023-08-17T04:36:47;56.07;;;37.60;;
8881;SDS011;4477;48.736;9.176;2023-08-17T04:39:14;62.07;;;37.40;;
8881;SDS011;4477;48.736;9.176;2023-08-17T04:41:41;65.67;;;39.27;;
8881;SDS011;4477;48.736;9.176;2023-08-17T04:44:08;65.67;;;38.73;;
8881;SDS011;4477;48.736;9.176;2023-08-17T04:46:35;54.10;;;36.60;;
8881;SDS011;4477;48.736;9.176;2023-08-17T04:49:03;56.30;;;37.10;;
8881;SDS011;4477;48.736;9.176;2023-08-17T04:51:30;52.87;;;36.57;;
8881;SDS011;4477;48.736;9.176;2023-08-17T04:53:57;84.90;;;40.53;;
8881;SDS011;4477;48.736;9.176;2023-08-17T04:56:24;60.30;;;39.23;;
8881;SDS011;4477;48.736;9.176;2023-08-17T04:58:51;58.53;;;38.30;;
8881;SDS011;4477;48.736;9.176;2023-08-17T05:01:18;55.33;;;37.13;;
8881;SDS011;4477;48.736;9.176;2023-08-17T05:03:45;47.73;;;33.97;;
8881;SDS011;4477;48.736;9.176;2023-08-17T05:06:13;48.80;;;33.37;;
8881;SDS011;4477;48.736;9.176;2023-08-17T05:08:40;47.67;;;32.83;;
8881;SDS011;4477;48.736;9.176;2023-08-17T05:11:07;42.07;;;31.33;;
8881;SDS011;4477;48.736;9.176;2023-08-17T05:13:34;41.07;;;30.10;;
8881;SDS011;4477;48.736;9.176;2023-08-17T05:16:00;40.80;;;31.43;;
8881;SDS011;4477;48.736;9.176;2023-08-17T05:18:27;40.57;;;30.80;;
8881;SDS011;4477;48.736;9.176;2023-08-17T05:20:54;39.43;;;30.07;;
8881;SDS011;4477;48.736;9.176;2023-08-17T05:23:22;39.47;;;29.00;;
8881;SDS011;4477;48.736;9.176;2023-08-17T05:25:49;40.73;;;29.50;;
8881;SDS011;4477;48.736;9.176;2023-08-17T05:28:16;38.77;;;29.80;;
8881;SDS011;4477;48.736;9.176;2023-08-17T05:30:43;33.77;;;29.67;;
8881;SDS011;4477;48.736;9.176;2023-08-17T05:33:10;40.17;;;30.00;;
8881;SDS011;4477;48.736;9.176;2023-08-17T05:35:37;36.83;;;30.27;;
8881;SDS011;4477;48.736;9.176;2023-08-17T05:38:03;35.27;;;29.00;;
8881;SDS011;4477;48.736;9.176;2023-08-17T05:40:32;34.40;;;29.40;;
8881;SDS011;4477;48.736;9.176;2023-08-17T05:42:59;35.67;;;28.37;;
8881;SDS011;4477;48.736;9.176;2023-08-17T05:45:26;33.37;;;27.27;;
8881;SDS011;4477;48.736;9.176;2023-08-17T05:47:53;28.33;;;25.37;;
8881;SDS011;4477;48.736;9.176;2023-08-17T05:50:19;25.30;;;22.70;;
8881;SDS011;4477;48.736;9.176;2023-08-17T05:52:46;26.70;;;24.10;;
8881;SDS011;4477;48.736;9.176;2023-08-17T05:55:13;27.13;;;24.20;;
8881;SDS011;4477;48.736;9.176;2023-08-17T05:57:41;24.67;;;22.27;;
8881;SDS011;4477;48.736;9.176;2023-08-17T06:00:08;24.93;;;22.33;;
8881;SDS011;4477;48.736;9.176;2023-08-17T06:02:37;26.73;;;22.60;;
8881;SDS011;4477;48.736;9.176;2023-08-17T06:05:04;24.47;;;21.97;;
8881;SDS011;4477;48.736;9.176;2023-08-17T06:07:32;25.03;;;22.27;;
8881;SDS011;4477;48.736;9.176;2023-08-17T06:09:59;24.37;;;21.77;;
8881;SDS011;4477;48.736;9.176;2023-08-17T06:12:28;23.43;;;21.07;;
8881;SDS011;4477;48.736;9.176;2023-08-17T06:14:57;24.27;;;21.37;;
8881;SDS011;4477;48.736;9.176;2023-08-17T06:17:23;22.43;;;20.13;;
8881;SDS011;4477;48.736;9.176;2023-08-17T06:19:50;22.17;;;19.97;;
8881;SDS011;4477;48.736;9.176;2023-08-17T06:22:17;22.80;;;20.40;;
8881;SDS011;4477;48.736;9.176;2023-08-17T06:24:44;23.90;;;21.43;;
8881;SDS011;4477;48.736;9.176;2023-08-17T06:27:13;23.33;;;20.90;;
8881;SDS011;4477;48.736;9.176;2023-08-17T06:29:40;24.60;;;21.97;;
8881;SDS011;4477;48.736;9.176;2023-08-17T06:32:09;23.23;;;20.80;;
8881;SDS011;4477;48.736;9.176;2023-08-17T06:34:35;21.80;;;19.47;;
8881;SDS011;4477;48.736;9.176;2023-08-17T06:37:03;20.40;;;18.23;;
8881;SDS011;4477;48.736;9.176;2023-08-17T06:39:30;23.30;;;18.93;;
8881;SDS011;4477;48.736;9.176;2023-08-17T06:41:57;19.33;;;17.43;;
8881;SDS011;4477;48.736;9.176;2023-08-17T06:44:24;18.23;;;16.27;;
8881;SDS011;4477;48.736;9.176;2023-08-17T06:46:51;20.80;;;18.70;;
8881;SDS011;4477;48.736;9.176;2023-08-17T06:49:19;19.50;;;17.50;;
8881;SDS011;4477;48.736;9.176;2023-08-17T06:51:46;22.30;;;19.60;;
8881;SDS011;4477;48.736;9.176;2023-08-17T06:54:13;21.20;;;19.17;;
8881;SDS011;4477;48.736;9.176;2023-08-17T06:56:40;20.40;;;18.37;;
8881;SDS011;4477;48.736;9.176;2023-08-17T06:59:07;19.00;;;17.07;;
8881;SDS011;4477;48.736;9.176;2023-08-17T07:01:33;16.60;;;14.97;;
8881;SDS011;4477;48.736;9.176;2023-08-17T07:04:00;17.97;;;15.97;;
8881;SDS011;4477;48.736;9.176;2023-08-17T07:06:29;17.07;;;15.57;;
8881;SDS011;4477;48.736;9.176;2023-08-17T07:08:56;17.23;;;15.53;;
8881;SDS011;4477;48.736;9.176;2023-08-17T07:11:24;16.83;;;15.13;;
8881;SDS011;4477;48.736;9.176;2023-08-17T07:13:51;18.67;;;16.73;;
8881;SDS011;4477;48.736;9.176;2023-08-17T07:16:18;18.67;;;16.63;;
8881;SDS011;4477;48.736;9.176;2023-08-17T07:18:45;18.05;;;16.30;;
8881;SDS011;4477;48.736;9.176;2023-08-17T07:21:13;17.60;;;15.80;;
8881;SDS011;4477;48.736;9.176;2023-08-17T07:23:43;16.52;;;15.02;;
8881;SDS011;4477;48.736;9.176;2023-08-17T07:26:11;15.53;;;14.03;;
8881;SDS011;4477;48.736;9.176;2023-08-17T07:28:38;17.10;;;15.32;;
8881;SDS011;4477;48.736;9.176;2023-08-17T07:31:05;17.55;;;15.82;;
8881;SDS011;4477;48.736;9.176;2023-08-17T07:33:32;17.25;;;15.48;;
8881;SDS011;4477;48.736;9.176;2023-08-17T07:35:59;16.80;;;15.00;;
8881;SDS011;4477;48.736;9.176;2023-08-17T07:38:26;15.90;;;14.40;;
8881;SDS011;4477;48.736;9.176;2023-08-17T07:40:55;16.65;;;15.00;;
8881;SDS011;4477;48.736;9.176;2023-08-17T07:43:22;13.60;;;12.30;;
8881;SDS011;4477;48.736;9.176;2023-08-17T07:45:54;14.13;;;12.18;;
8881;SDS011;4477;48.736;9.176;2023-08-17T07:48:21;14.00;;;12.60;;
8881;SDS011;4477;48.736;9.176;2023-08-17T07:50:48;14.38;;;12.88;;
8881;SDS011;4477;48.736;9.176;2023-08-17T07:53:16;14.63;;;13.10;;
8881;SDS011;4477;48.736;9.176;2023-08-17T07:55:43;13.10;;;11.80;;
8881;SDS011;4477;48.736;9.176;2023-08-17T07:58:12;13.93;;;12.73;;
8881;SDS011;4477;48.736;9.176;2023-08-17T08:00:39;13.20;;;12.00;;
8881;SDS011;4477;48.736;9.176;2023-08-17T08:03:06;14.13;;;11.10;;
8881;SDS011;4477;48.736;9.176;2023-08-17T08:05:34;11.13;;;9.95;;
8881;SDS011;4477;48.736;9.176;2023-08-17T08:08:01;13.13;;;12.00;;
8881;SDS011;4477;48.736;9.176;2023-08-17T08:10:28;13.70;;;11.55;;
8881;SDS011;4477;48.736;9.176;2023-08-17T08:12:55;12.13;;;10.85;;
8881;SDS011;4477;48.736;9.176;2023-08-17T08:15:23;10.80;;;9.80;;
8881;SDS011;4477;48.736;9.176;2023-08-17T08:17:50;9.50;;;8.70;;
8881;SDS011;4477;48.736;9.176;2023-08-17T08:20:18;9.02;;;8.23;;
8881;SDS011;4477;48.736;9.176;2023-08-17T08:22:45;8.95;;;8.15;;
8881;SDS011;4477;48.736;9.176;2023-08-17T08:25:12;11.15;;;10.15;;
8881;SDS011;4477;48.736;9.176;2023-08-17T08:27:39;10.07;;;9.05;;
8881;SDS011;4477;48.736;9.176;2023-08-17T08:30:07;9.80;;;8.80;;
8881;SDS011;4477;48.736;9.176;2023-08-17T08:32:35;9.82;;;8.55;;
8881;SDS011;4477;48.736;9.176;2023-08-17T08:35:02;10.10;;;9.20;;
8881;SDS011;4477;48.736;9.176;2023-08-17T08:37:30;10.10;;;9.07;;
8881;SDS011;4477;48.736;9.176;2023-08-17T08:39:57;9.90;;;8.95;;
8881;SDS011;4477;48.736;9.176;2023-08-17T08:42:24;8.57;;;7.75;;
8881;SDS011;4477;48.736;9.176;2023-08-17T08:44:51;9.25;;;8.13;;
8881;SDS011;4477;48.736;9.176;2023-08-17T08:47:19;9.85;;;8.85;;
8881;SDS011;4477;48.736;9.176;2023-08-17T08:49:49;9.57;;;8.68;;
8881;SDS011;4477;48.736;9.176;2023-08-17T08:52:19;10.13;;;7.97;;
8881;SDS011;4477;48.736;9.176;2023-08-17T08:54:46;8.57;;;7.78;;
8881;SDS011;4477;48.736;9.176;2023-08-17T08:57:16;8.63;;;7.45;;
8881;SDS011;4477;48.736;9.176;2023-08-17T08:59:45;8.13;;;7.30;;
8881;SDS011;4477;48.736;9.176;2023-08-17T09:02:13;9.05;;;7.22;;
8881;SDS011;4477;48.736;9.176;2023-08-17T09:04:41;8.10;;;7.35;;
8881;SDS011;4477;48.736;9.176;2023-08-17T09:07:10;13.27;;;7.40;;
8881;SDS011;4477;48.736;9.176;2023-08-17T09:09:37;7.32;;;6.63;;
8881;SDS011;4477;48.736;9.176;2023-08-17T09:12:05;7.10;;;6.50;;
8881;SDS011;4477;48.736;9.176;2023-08-17T09:14:34;7.65;;;6.95;;
8881;SDS011;4477;48.736;9.176;2023-08-17T09:17:02;6.25;;;5.65;;
8881;SDS011;4477;48.736;9.176;2023-08-17T09:19:31;8.30;;;5.60;;
8881;SDS011;4477;48.736;9.176;2023-08-17T09:21:58;5.70;;;5.10;;
8881;SDS011;4477;48.736;9.176;2023-08-17T09:24:34;7.47;;;5.35;;
8881;SDS011;4477;48.736;9.176;2023-08-17T09:27:01;5.32;;;4.82;;
8881;SDS011;4477;48.736;9.176;2023-08-17T09:29:29;6.88;;;4.93;;
8881;SDS011;4477;48.736;9.176;2023-08-17T09:31:58;6.38;;;5.80;;
8881;SDS011;4477;48.736;9.176;2023-08-17T09:34:25;6.68;;;5.95;;
8881;SDS011;4477;48.736;9.176;2023-08-17T09:37:01;6.18;;;5.00;;
8881;SDS011;4477;48.736;9.176;2023-08-17T09:39:29;5.22;;;4.60;;
8881;SDS011;4477;48.736;9.176;2023-08-17T09:41:57;5.47;;;4.97;;
8881;SDS011;4477;48.736;9.176;2023-08-17T09:44:24;7.18;;;5.05;;
8881;SDS011;4477;48.736;9.176;2023-08-17T09:46:54;5.43;;;4.85;;
8881;SDS011;4477;48.736;9.176;2023-08-17T09:49:22;5.75;;;5.25;;
8881;SDS011;4477;48.736;9.176;2023-08-17T09:51:50;5.95;;;4.70;;
8881;SDS011;4477;48.736;9.176;2023-08-17T09:54:20;7.13;;;5.43;;
8881;SDS011;4477;48.736;9.176;2023-08-17T09:56:48;5.55;;;5.05;;
8881;SDS011;4477;48.736;9.176;2023-08-17T09:59:18;5.35;;;4.78;;
8881;SDS011;4477;48.736;9.176;2023-08-17T10:01:45;5.68;;;5.13;;
8881;SDS011;4477;48.736;9.176;2023-08-17T10:04:13;5.07;;;4.68;;
8881;SDS011;4477;48.736;9.176;2023-08-17T10:06:40;5.18;;;4.68;;
8881;SDS011;4477;48.736;9.176;2023-08-17T10:09:08;5.00;;;4.60;;
8881;SDS011;4477;48.736;9.176;2023-08-17T10:11:36;4.57;;;4.20;;
8881;SDS011;4477;48.736;9.176;2023-08-17T10:14:06;5.18;;;4.63;;
8881;SDS011;4477;48.736;9.176;2023-08-17T10:16:39;5.60;;;5.10;;
8881;SDS011;4477;48.736;9.176;2023-08-17T10:19:13;4.93;;;4.53;;
8881;SDS011;4477;48.736;9.176;2023-08-17T10:21:43;5.13;;;4.70;;
8881;SDS011;4477;48.736;9.176;2023-08-17T10:24:11;8.43;;;5.32;;
8881;SDS011;4477;48.736;9.176;2023-08-17T10:26:38;5.72;;;4.82;;
8881;SDS011;4477;48.736;9.176;2023-08-17T10:29:06;5.30;;;4.80;;
8881;SDS011;4477;48.736;9.176;2023-08-17T10:31:33;5.97;;;5.38;;
8881;SDS011;4477;48.736;9.176;2023-08-17T10:34:02;5.63;;;5.15;;
8881;SDS011;4477;48.736;9.176;2023-08-17T10:36:30;5.30;;;4.90;;
8881;SDS011;4477;48.736;9.176;2023-08-17T10:41:45;5.20;;;4.72;;
8881;SDS011;4477;48.736;9.176;2023-08-17T10:44:13;5.53;;;5.03;;
8881;SDS011;4477;48.736;9.176;2023-08-17T10:46:40;5.50;;;5.00;;
8881;SDS011;4477;48.736;9.176;2023-08-17T10:49:24;6.85;;;5.07;;
8881;SDS011;4477;48.736;9.176;2023-08-17T10:52:02;6.03;;;5.32;;
8881;SDS011;4477;48.736;9.176;2023-08-17T10:54:36;5.75;;;5.25;;
8881;SDS011;4477;48.736;9.176;2023-08-17T10:59:55;5.43;;;5.03;;
8881;SDS011;4477;48.736;9.176;2023-08-17T11:02:33;6.57;;;4.88;;
8881;SDS011;4477;48.736;9.176;2023-08-17T11:05:01;5.85;;;4.68;;
8881;SDS011;4477;48.736;9.176;2023-08-17T11:07:38;5.97;;;5.38;;
8881;SDS011;4477;48.736;9.176;2023-08-17T11:10:10;5.88;;;5.30;;
8881;SDS011;4477;48.736;9.176;2023-08-17T11:12:37;5.15;;;4.65;;
8881;SDS011;4477;48.736;9.176;2023-08-17T11:15:05;6.00;;;5.05;;
8881;SDS011;4477;48.736;9.176;2023-08-17T11:17:32;5.90;;;5.40;;
8881;SDS011;4477;48.736;9.176;2023-08-17T11:19:59;8.18;;;5.25;;
8881;SDS011;4477;48.736;9.176;2023-08-17T11:22:28;6.07;;;5.47;;
8881;SDS011;4477;48.736;9.176;2023-08-17T11:24:55;5.72;;;5.03;;
8881;SDS011;4477;48.736;9.176;2023-08-17T11:27:22;6.60;;;5.05;;
8881;SDS011;4477;48.736;9.176;2023-08-17T11:29:50;5.65;;;5.15;;
8881;SDS011;4477;48.736;9.176;2023-08-17T11:32:17;5.65;;;5.13;;
8881;SDS011;4477;48.736;9.176;2023-08-17T11:34:44;5.70;;;5.20;;
8881;SDS011;4477;48.736;9.176;2023-08-17T11:37:12;5.60;;;4.78;;
8881;SDS011;4477;48.736;9.176;2023-08-17T11:39:41;5.25;;;4.75;;
8881;SDS011;4477;48.736;9.176;2023-08-17T11:42:08;5.47;;;4.80;;
8881;SDS011;4477;48.736;9.176;2023-08-17T11:44:35;6.07;;;4.68;;
8881;SDS011;4477;48.736;9.176;2023-08-17T11:47:02;6.03;;;5.40;;
8881;SDS011;4477;48.736;9.176;2023-08-17T11:49:30;5.35;;;4.60;;
8881;SDS011;4477;48.736;9.176;2023-08-17T11:51:57;6.60;;;4.55;;
8881;SDS011;4477;48.736;9.176;2023-08-17T11:54:25;5.68;;;5.18;;
8881;SDS011;4477;48.736;9.176;2023-08-17T11:56:53;5.65;;;5.10;;
8881;SDS011;4477;48.736;9.176;2023-08-17T11:59:20;5.25;;;4.78;;
8881;SDS011;4477;48.736;9.176;2023-08-17T12:01:48;5.63;;;5.13;;
8881;SDS011;4477;48.736;9.176;2023-08-17T12:04:15;6.00;;;5.38;;
8881;SDS011;4477;48.736;9.176;2023-08-17T12:06:43;5.05;;;4.53;;
8881;SDS011;4477;48.736;9.176;2023-08-17T12:09:11;5.72;;;4.78;;
8881;SDS011;4477;48.736;9.176;2023-08-17T12:11:39;4.88;;;4.57;;
8881;SDS011;4477;48.736;9.176;2023-08-17T12:14:11;5.50;;;4.70;;
8881;SDS011;4477;48.736;9.176;2023-08-17T12:16:45;5.03;;;4.53;;
8881;SDS011;4477;48.736;9.176;2023-08-17T12:19:13;5.30;;;4.80;;
8881;SDS011;4477;48.736;9.176;2023-08-17T12:21:40;5.18;;;4.60;;
8881;SDS011;4477;48.736;9.176;2023-08-17T12:24:08;5.72;;;5.05;;
8881;SDS011;4477;48.736;9.176;2023-08-17T12:26:40;6.70;;;6.00;;
8881;SDS011;4477;48.736;9.176;2023-08-17T12:29:07;7.30;;;6.65;;
8881;SDS011;4477;48.736;9.176;2023-08-17T12:31:36;7.65;;;6.85;;
8881;SDS011;4477;48.736;9.176;2023-08-17T12:34:03;7.15;;;6.30;;
8881;SDS011;4477;48.736;9.176;2023-08-17T12:36:30;7.07;;;6.38;;
8881;SDS011;4477;48.736;9.176;2023-08-17T12:38:58;7.63;;;6.93;;
8881;SDS011;4477;48.736;9.176;2023-08-17T12:41:25;7.05;;;6.35;;
8881;SDS011;4477;48.736;9.176;2023-08-17T12:43:52;9.68;;;6.82;;
8881;SDS011;4477;48.736;9.176;2023-08-17T12:46:19;8.10;;;7.40;;
8881;SDS011;4477;48.736;9.176;2023-08-17T12:48:48;9.07;;;8.18;;
8881;SDS011;4477;48.736;9.176;2023-08-17T12:51:15;9.75;;;8.88;;
8881;SDS011;4477;48.736;9.176;2023-08-17T12:53:42;9.77;;;8.73;;
8881;SDS011;4477;48.736;9.176;2023-08-17T12:56:09;9.85;;;8.95;;
8881;SDS011;4477;48.736;9.176;2023-08-17T12:58:36;11.25;;;9.20;;
8881;SDS011;4477;48.736;9.176;2023-08-17T13:01:03;10.98;;;8.43;;
8881;SDS011;4477;48.736;9.176;2023-08-17T13:03:31;8.40;;;7.47;;
8881;SDS011;4477;48.736;9.176;2023-08-17T13:05:59;9.80;;;8.80;;
8881;SDS011;4477;48.736;9.176;2023-08-17T13:08:26;9.15;;;8.00;;
8881;SDS011;4477;48.736;9.176;2023-08-17T13:10:53;10.40;;;8.48;;
8881;SDS011;4477;48.736;9.176;2023-08-17T13:13:20;9.40;;;8.50;;
8881;SDS011;4477;48.736;9.176;2023-08-17T13:15:48;8.43;;;7.63;;
8881;SDS011;4477;48.736;9.176;2023-08-17T13:18:15;9.15;;;8.23;;
8881;SDS011;4477;48.736;9.176;2023-08-17T13:20:42;9.52;;;7.38;;
8881;SDS011;4477;48.736;9.176;2023-08-17T13:23:10;9.38;;;7.60;;
8881;SDS011;4477;48.736;9.176;2023-08-17T13:25:38;9.43;;;7.65;;
8881;SDS011;4477;48.736;9.176;2023-08-17T13:28:05;8.63;;;7.57;;
8881;SDS011;4477;48.736;9.176;2023-08-17T13:30:32;8.18;;;7.38;;
8881;SDS011;4477;48.736;9.176;2023-08-17T13:32:59;8.52;;;7.72;;
8881;SDS011;4477;48.736;9.176;2023-08-17T13:35:27;9.82;;;8.82;;
8881;SDS011;4477;48.736;9.176;2023-08-17T13:37:54;9.48;;;8.23;;
8881;SDS011;4477;48.736;9.176;2023-08-17T13:40:24;9.05;;;8.13;;
8881;SDS011;4477;48.736;9.176;2023-08-17T13:42:51;9.93;;;8.95;;
8881;SDS011;4477;48.736;9.176;2023-08-17T13:45:18;9.68;;;8.75;;
8881;SDS011;4477;48.736;9.176;2023-08-17T13:47:45;9.65;;;8.70;;
8881;SDS011;4477;48.736;9.176;2023-08-17T13:50:12;9.75;;;8.75;;
8881;SDS011;4477;48.736;9.176;2023-08-17T13:52:39;10.38;;;8.27;;
8881;SDS011;4477;48.736;9.176;2023-08-17T13:55:06;10.68;;;9.35;;
8881;SDS011;4477;48.736;9.176;2023-08-17T13:57:35;10.45;;;9.45;;
8881;SDS011;4477;48.736;9.176;2023-08-17T14:00:02;10.48;;;9.10;;
8881;SDS011;4477;48.736;9.176;2023-08-17T14:02:30;10.53;;;9.10;;
8881;SDS011;4477;48.736;9.176;2023-08-17T14:05:02;11.18;;;10.25;;
8881;SDS011;4477;48.736;9.176;2023-08-17T14:08:39;12.13;;;11.03;;
8881;SDS011;4477;48.736;9.176;2023-08-17T14:15:12;11.93;;;10.73;;
8881;SDS011;4477;48.736;9.176;2023-08-17T14:17:55;11.60;;;10.50;;
8881;SDS011;4477;48.736;9.176;2023-08-17T14:20:36;12.93;;;11.33;;
8881;SDS011;4477;48.736;9.176;2023-08-17T14:23:44;12.23;;;10.35;;
8881;SDS011;4477;48.736;9.176;2023-08-17T14:26:11;11.33;;;10.23;;
8881;SDS011;4477;48.736;9.176;2023-08-17T14:28:38;12.88;;;11.43;;
8881;SDS011;4477;48.736;9.176;2023-08-17T14:31:06;11.52;;;10.27;;
8881;SDS011;4477;48.736;9.176;2023-08-17T14:33:33;10.73;;;9.63;;
8881;SDS011;4477;48.736;9.176;2023-08-17T14:36:00;11.30;;;9.98;;
8881;SDS011;4477;48.736;9.176;2023-08-17T14:38:27;11.80;;;10.60;;
8881;SDS011;4477;48.736;9.176;2023-08-17T14:40:53;10.82;;;9.82;;
8881;SDS011;4477;48.736;9.176;2023-08-17T14:43:21;10.88;;;9.77;;
8881;SDS011;4477;48.736;9.176;2023-08-17T14:45:47;14.30;;;9.05;;
8881;SDS011;4477;48.736;9.176;2023-08-17T14:48:16;9.77;;;8.80;;
8881;SDS011;4477;48.736;9.176;2023-08-17T14:50:43;10.80;;;8.15;;
8881;SDS011;4477;48.736;9.176;2023-08-17T14:53:10;11.93;;;8.15;;
8881;SDS011;4477;48.736;9.176;2023-08-17T14:55:37;10.40;;;9.25;;
8881;SDS011;4477;48.736;9.176;2023-08-17T14:58:04;9.90;;;8.13;;
8881;SDS011;4477;48.736;9.176;2023-08-17T15:00:31;9.80;;;7.93;;
8881;SDS011;4477;48.736;9.176;2023-08-17T15:02:59;8.18;;;7.50;;
8881;SDS011;4477;48.736;9.176;2023-08-17T15:05:27;9.23;;;8.25;;
8881;SDS011;4477;48.736;9.176;2023-08-17T15:07:55;7.43;;;6.82;;
8881;SDS011;4477;48.736;9.176;2023-08-17T15:10:22;9.90;;;7.72;;
8881;SDS011;4477;48.736;9.176;2023-08-17T15:12:49;8.60;;;7.78;;